createdAt,value
2018-09-03T00:00:47.177Z,22.06
2018-09-03T00:15:50.956Z,22.01
2018-09-03T00:30:58.849Z,21.56
2018-09-03T00:46:07.770Z,20.82
2018-09-03T01:01:11.569Z,21.16
2018-09-03T01:16:15.355Z,21.15
2018-09-03T01:31:19.807Z,20.71
2018-09-03T01:46:23.739Z,20.12
2018-09-03T02:01:27.557Z,19.74
2018-09-03T02:16:31.322Z,19.51
2018-09-03T02:31:35.130Z,19.36
2018-09-03T02:46:38.908Z,19.83
2018-09-03T03:01:42.704Z,20.07
2018-09-03T03:16:46.487Z,19.98
2018-09-03T03:31:50.309Z,19.81
2018-09-03T03:46:54.097Z,19.70
2018-09-03T04:01:57.959Z,19.54
2018-09-03T04:17:01.710Z,19.91
2018-09-03T04:32:05.535Z,20.42
2018-09-03T04:47:10.606Z,20.49
2018-09-03T05:02:14.487Z,21.81
2018-09-03T05:17:18.236Z,23.96
2018-09-03T05:32:21.985Z,25.39
2018-09-03T05:47:25.751Z,27.06
2018-09-03T06:02:29.595Z,26.80
2018-09-03T06:17:33.552Z,25.72
2018-09-03T06:32:37.400Z,24.64
2018-09-03T06:47:41.257Z,24.76
2018-09-03T07:02:45.117Z,27.19
2018-09-03T07:17:49.619Z,26.51
2018-09-03T07:32:53.391Z,27.37
2018-09-03T07:47:57.435Z,28.24
2018-09-03T08:03:01.381Z,29.77
2018-09-03T08:18:05.222Z,28.03
2018-09-03T08:33:09.343Z,27.06
2018-09-03T08:48:14.047Z,29.94
2018-09-03T09:03:23.037Z,29.31
2018-09-03T09:18:26.786Z,28.86
2018-09-03T09:33:30.589Z,29.90
2018-09-03T09:48:36.498Z,30.43
2018-09-03T10:03:40.225Z,29.92
2018-09-03T10:18:43.954Z,31.78
2018-09-03T10:33:47.707Z,31.24
2018-09-03T10:48:52.574Z,30.21
2018-09-03T11:03:56.322Z,29.57
2018-09-03T11:19:33.219Z,29.73
2018-09-03T12:06:29.435Z,25.78
2018-09-03T12:21:33.250Z,24.69
2018-09-03T12:36:36.982Z,24.13
2018-09-03T12:51:40.719Z,20.92
2018-09-03T13:06:44.471Z,20.46
2018-09-03T13:21:48.229Z,22.85
2018-09-03T13:36:51.984Z,22.80
2018-09-03T13:51:55.752Z,21.96
2018-09-03T14:06:59.509Z,23.21
2018-09-03T14:22:03.242Z,22.81
2018-09-03T14:37:07.092Z,23.04
2018-09-03T14:52:10.969Z,23.88
2018-09-03T15:07:16.003Z,24.69
2018-09-03T15:22:19.819Z,23.38
2018-09-03T15:37:24.578Z,22.14
2018-09-03T15:52:28.680Z,21.95
2018-09-03T16:07:32.651Z,22.05
2018-09-03T16:22:36.429Z,21.18
2018-09-03T16:37:41.014Z,20.92
2018-09-03T16:52:44.755Z,21.02
2018-09-03T17:07:48.595Z,20.43
2018-09-03T17:22:52.284Z,19.65
2018-09-03T17:37:56.032Z,19.48
2018-09-03T17:52:59.786Z,18.53
2018-09-03T18:08:03.523Z,18.79
2018-09-03T18:23:07.365Z,18.93
2018-09-03T18:38:11.995Z,19.02
2018-09-03T18:53:15.780Z,19.17
2018-09-03T19:08:20.021Z,19.60
2018-09-03T19:23:23.813Z,19.60
2018-09-03T19:38:27.605Z,19.56
2018-09-03T19:53:31.424Z,19.24
2018-09-03T20:08:35.350Z,18.73
2018-09-03T20:23:39.263Z,18.42
2018-09-03T20:38:42.879Z,18.17
2018-09-03T20:53:46.626Z,18.19
2018-09-03T21:08:50.398Z,18.13
2018-09-03T21:23:54.155Z,17.91
2018-09-03T21:38:58.011Z,17.80
2018-09-03T21:54:01.698Z,17.88
2018-09-03T22:09:06.510Z,18.20
2018-09-03T22:24:10.226Z,17.99
2018-09-03T22:39:14.456Z,17.72
2018-09-03T22:54:18.205Z,17.70
2018-09-03T23:09:22.090Z,17.62
2018-09-03T23:24:25.867Z,17.74
2018-09-03T23:39:29.598Z,17.96
2018-09-03T23:54:33.323Z,17.78
